createdAt,value
2018-07-14T00:00:36.457Z,1021.00
2018-07-14T00:01:36.484Z,1021.05
2018-07-14T00:02:36.504Z,1021.01
2018-07-14T00:03:36.535Z,1021.00
2018-07-14T00:04:36.572Z,1020.99
2018-07-14T00:05:36.580Z,1020.99
2018-07-14T00:06:36.607Z,1020.97
2018-07-14T00:07:36.633Z,1020.98
2018-07-14T00:08:36.658Z,1020.98
2018-07-14T00:09:36.681Z,1021.00
2018-07-14T00:10:36.710Z,1020.98
2018-07-14T00:11:36.730Z,1020.99
2018-07-14T00:12:36.763Z,1020.94
2018-07-14T00:13:36.784Z,1020.96
2018-07-14T00:14:36.803Z,1020.96
2018-07-14T00:15:36.829Z,1020.97
2018-07-14T00:16:36.856Z,1020.95
2018-07-14T00:17:36.884Z,1020.96
2018-07-14T00:18:36.908Z,1020.96
2018-07-14T00:19:36.930Z,1020.92
2018-07-14T00:20:36.953Z,1020.91
2018-07-14T00:21:36.981Z,1020.92
2018-07-14T00:22:37.004Z,1020.90
2018-07-14T00:23:37.036Z,1020.88
2018-07-14T00:24:37.061Z,1020.86
2018-07-14T00:25:37.076Z,1020.85
2018-07-14T00:26:37.105Z,1020.81
2018-07-14T00:27:37.132Z,1020.85
2018-07-14T00:28:37.161Z,1020.83
2018-07-14T00:29:37.178Z,1020.88
2018-07-14T00:30:37.205Z,1020.85
2018-07-14T00:31:37.233Z,1020.84
2018-07-14T00:32:37.256Z,1020.84
2018-07-14T00:33:37.280Z,1020.84
2018-07-14T00:34:37.309Z,1020.82
2018-07-14T00:35:37.328Z,1020.85
2018-07-14T00:36:37.352Z,1020.82
2018-07-14T00:37:37.374Z,1020.81
2018-07-14T00:38:37.404Z,1020.83
2018-07-14T00:39:37.438Z,1020.79
2018-07-14T00:40:37.450Z,1020.85
2018-07-14T00:41:37.523Z,1020.82
2018-07-14T00:42:37.505Z,1020.79
2018-07-14T00:43:37.530Z,1020.80
2018-07-14T00:44:37.551Z,1020.79
2018-07-14T00:45:37.572Z,1020.79
2018-07-14T00:46:37.599Z,1020.79
2018-07-14T00:47:37.622Z,1020.78
2018-07-14T00:48:37.650Z,1020.80
2018-07-14T00:49:37.673Z,1020.80
2018-07-14T00:50:37.706Z,1020.79
2018-07-14T00:51:37.724Z,1020.79
2018-07-14T00:52:37.745Z,1020.80
2018-07-14T00:53:37.775Z,1020.83
2018-07-14T00:54:37.791Z,1020.81
2018-07-14T00:55:37.827Z,1020.84
2018-07-14T00:56:37.846Z,1020.81
2018-07-14T00:57:37.869Z,1020.78
2018-07-14T00:58:37.895Z,1020.76
2018-07-14T00:59:37.924Z,1020.79
2018-07-14T01:00:37.945Z,1020.78
2018-07-14T01:01:37.974Z,1020.78
2018-07-14T01:02:37.996Z,1020.80
2018-07-14T01:03:38.024Z,1020.77
2018-07-14T01:04:38.045Z,1020.77
2018-07-14T01:05:38.072Z,1020.76
2018-07-14T01:06:38.099Z,1020.78
2018-07-14T01:07:38.177Z,1020.75
2018-07-14T01:08:38.146Z,1020.73
2018-07-14T01:09:38.162Z,1020.74
2018-07-14T01:10:38.191Z,1020.73
2018-07-14T01:11:38.213Z,1020.69
2018-07-14T01:12:38.244Z,1020.70
2018-07-14T01:13:38.269Z,1020.67
2018-07-14T01:14:38.298Z,1020.70
2018-07-14T01:15:38.315Z,1020.66
2018-07-14T01:16:38.342Z,1020.66
2018-07-14T01:17:38.420Z,1020.69
2018-07-14T01:18:38.393Z,1020.71
2018-07-14T01:19:38.415Z,1020.71
2018-07-14T01:20:38.437Z,1020.70
2018-07-14T01:21:38.466Z,1020.72
2018-07-14T01:22:38.492Z,1020.72
2018-07-14T01:23:38.512Z,1020.77
2018-07-14T01:24:38.535Z,1020.74
2018-07-14T01:25:38.562Z,1020.75
2018-07-14T01:26:38.589Z,1020.71
2018-07-14T01:27:38.614Z,1020.73
2018-07-14T01:28:38.634Z,1020.75
2018-07-14T01:29:38.660Z,1020.73
2018-07-14T01:30:38.687Z,1020.74
2018-07-14T01:31:38.713Z,1020.76
2018-07-14T01:32:38.744Z,1020.76
2018-07-14T01:33:38.750Z,1020.75
2018-07-14T01:34:38.780Z,1020.76
2018-07-14T01:35:38.800Z,1020.74
2018-07-14T01:36:38.832Z,1020.74
2018-07-14T01:37:38.854Z,1020.71
2018-07-14T01:38:38.882Z,1020.72
2018-07-14T01:39:38.902Z,1020.72
2018-07-14T01:40:38.988Z,1020.73
2018-07-14T01:41:38.961Z,1020.68
2018-07-14T01:42:38.977Z,1020.69
2018-07-14T01:43:39.002Z,1020.67
2018-07-14T01:44:39.029Z,1020.68
2018-07-14T01:45:39.046Z,1020.69
2018-07-14T01:46:39.076Z,1020.66
2018-07-14T01:47:39.099Z,1020.68
2018-07-14T01:48:39.130Z,1020.64
2018-07-14T01:49:39.154Z,1020.65
2018-07-14T01:50:39.175Z,1020.65
2018-07-14T01:51:39.198Z,1020.62
2018-07-14T01:52:39.222Z,1020.63
2018-07-14T01:53:39.245Z,1020.66
2018-07-14T01:54:39.273Z,1020.65
2018-07-14T01:55:39.296Z,1020.65
2018-07-14T01:56:39.324Z,1020.67
2018-07-14T01:57:39.344Z,1020.67
2018-07-14T01:58:39.368Z,1020.69
2018-07-14T01:59:39.394Z,1020.70
2018-07-14T02:00:39.421Z,1020.70
2018-07-14T02:01:39.440Z,1020.71
2018-07-14T02:02:39.470Z,1020.73
2018-07-14T02:03:39.489Z,1020.69
2018-07-14T02:04:39.518Z,1020.72
2018-07-14T02:05:39.548Z,1020.73
2018-07-14T02:06:39.572Z,1020.75
2018-07-14T02:07:39.586Z,1020.75
2018-07-14T02:08:39.616Z,1020.74
2018-07-14T02:09:39.636Z,1020.75
2018-07-14T02:10:39.668Z,1020.74
2018-07-14T02:11:39.687Z,1020.78
2018-07-14T02:12:39.714Z,1020.80
2018-07-14T02:13:39.734Z,1020.79
2018-07-14T02:14:39.762Z,1020.79
2018-07-14T02:15:39.784Z,1020.78
2018-07-14T02:16:39.812Z,1020.81
2018-07-14T02:17:39.832Z,1020.84
2018-07-14T02:18:39.862Z,1020.83
2018-07-14T02:19:39.884Z,1020.85
2018-07-14T02:20:39.914Z,1020.85
2018-07-14T02:21:39.934Z,1020.85
2018-07-14T02:22:39.961Z,1020.86
2018-07-14T02:23:39.982Z,1020.86
2018-07-14T02:24:40.009Z,1020.85
2018-07-14T02:25:40.036Z,1020.83
2018-07-14T02:26:40.058Z,1020.83
2018-07-14T02:27:40.082Z,1020.83
2018-07-14T02:28:40.106Z,1020.79
2018-07-14T02:29:40.128Z,1020.78
2018-07-14T02:30:40.158Z,1020.79
2018-07-14T02:31:40.185Z,1020.80
2018-07-14T02:32:40.209Z,1020.77
2018-07-14T02:33:40.235Z,1020.76
2018-07-14T02:34:40.248Z,1020.76
2018-07-14T02:35:40.278Z,1020.77
2018-07-14T02:36:40.303Z,1020.77
2018-07-14T02:37:40.337Z,1020.76
2018-07-14T02:38:40.359Z,1020.76
2018-07-14T02:39:40.400Z,1020.74
2018-07-14T02:40:40.400Z,1020.74
2018-07-14T02:41:40.428Z,1020.74
2018-07-14T02:42:40.450Z,1020.76
2018-07-14T02:43:40.478Z,1020.74
2018-07-14T02:44:40.501Z,1020.77
2018-07-14T02:45:40.531Z,1020.73
2018-07-14T02:46:40.549Z,1020.73
2018-07-14T02:47:40.574Z,1020.70
2018-07-14T02:48:40.604Z,1020.70
2018-07-14T02:49:40.624Z,1020.69
2018-07-14T02:50:40.650Z,1020.65
2018-07-14T02:51:40.672Z,1020.65
2018-07-14T02:52:40.696Z,1020.61
2018-07-14T02:53:40.728Z,1020.66
2018-07-14T02:54:40.750Z,1020.64
2018-07-14T02:55:40.774Z,1020.63
2018-07-14T02:56:40.814Z,1020.62
2018-07-14T02:57:40.826Z,1020.59
2018-07-14T02:58:40.844Z,1020.61
2018-07-14T02:59:40.917Z,1020.62
2018-07-14T03:00:40.896Z,1020.60
2018-07-14T03:01:40.922Z,1020.61
2018-07-14T03:02:40.950Z,1020.60
2018-07-14T03:03:40.974Z,1020.60
2018-07-14T03:04:40.997Z,1020.62
2018-07-14T03:05:41.020Z,1020.61
2018-07-14T03:06:41.046Z,1020.62
2018-07-14T03:07:41.068Z,1020.62
2018-07-14T03:08:41.093Z,1020.62
2018-07-14T03:09:41.120Z,1020.63
2018-07-14T03:10:41.145Z,1020.62
2018-07-14T03:11:41.168Z,1020.62
2018-07-14T03:12:41.195Z,1020.65
2018-07-14T03:13:41.220Z,1020.64
2018-07-14T03:14:41.241Z,1020.71
2018-07-14T03:15:41.266Z,1020.65
2018-07-14T03:16:41.291Z,1020.67
2018-07-14T03:17:41.312Z,1020.68
2018-07-14T03:18:41.354Z,1020.67
2018-07-14T03:19:41.367Z,1020.68
2018-07-14T03:20:41.388Z,1020.71
2018-07-14T03:21:41.412Z,1020.70
2018-07-14T03:22:41.439Z,1020.70
2018-07-14T03:23:41.460Z,1020.71
2018-07-14T03:24:41.492Z,1020.74
2018-07-14T03:25:41.512Z,1020.72
2018-07-14T03:26:41.540Z,1020.75
2018-07-14T03:27:41.575Z,1020.71
2018-07-14T03:28:41.582Z,1020.72
2018-07-14T03:29:41.611Z,1020.74
2018-07-14T03:30:41.636Z,1020.74
2018-07-14T03:31:41.666Z,1020.74
2018-07-14T03:32:41.692Z,1020.75
2018-07-14T03:33:41.707Z,1020.74
2018-07-14T03:34:41.739Z,1020.79
2018-07-14T03:35:41.758Z,1020.76
2018-07-14T03:36:41.817Z,1020.76
2018-07-14T03:37:41.811Z,1020.74
2018-07-14T03:38:41.836Z,1020.75
2018-07-14T03:39:41.863Z,1020.76
2018-07-14T03:40:41.888Z,1020.73
2018-07-14T03:41:41.916Z,1020.77
2018-07-14T03:42:41.939Z,1020.76
2018-07-14T03:43:41.965Z,1020.76
2018-07-14T03:44:41.983Z,1020.78
2018-07-14T03:45:42.009Z,1020.78
2018-07-14T03:46:42.035Z,1020.78
2018-07-14T03:47:42.059Z,1020.76
2018-07-14T03:48:42.085Z,1020.76
2018-07-14T03:49:42.110Z,1020.76
2018-07-14T03:50:42.130Z,1020.73
2018-07-14T03:51:42.160Z,1020.77
2018-07-14T03:52:42.181Z,1020.73
2018-07-14T03:53:42.208Z,1020.78
2018-07-14T03:54:42.228Z,1020.75
2018-07-14T03:55:42.261Z,1020.80
2018-07-14T03:56:42.310Z,1020.78
2018-07-14T03:57:42.311Z,1020.77
2018-07-14T03:58:42.333Z,1020.78
2018-07-14T03:59:42.354Z,1020.76
2018-07-14T04:00:42.380Z,1020.78
2018-07-14T04:01:42.410Z,1020.78
2018-07-14T04:02:42.430Z,1020.76
2018-07-14T04:03:42.460Z,1020.75
2018-07-14T04:04:42.486Z,1020.78
2018-07-14T04:05:42.506Z,1020.76
2018-07-14T04:06:42.535Z,1020.78
2018-07-14T04:07:42.554Z,1020.80
2018-07-14T04:08:42.582Z,1020.77
2018-07-14T04:09:42.607Z,1020.76
2018-07-14T04:10:42.624Z,1020.75
2018-07-14T04:11:42.663Z,1020.77
2018-07-14T04:12:42.688Z,1020.75
2018-07-14T04:13:42.700Z,1020.77
2018-07-14T04:14:42.829Z,1020.75
2018-07-14T04:15:42.758Z,1020.75
2018-07-14T04:16:42.776Z,1020.78
2018-07-14T04:17:42.806Z,1020.78
2018-07-14T04:18:42.828Z,1020.77
2018-07-14T04:19:42.859Z,1020.76
2018-07-14T04:20:42.884Z,1020.79
2018-07-14T04:21:42.909Z,1020.76
2018-07-14T04:22:42.928Z,1020.78
2018-07-14T04:23:42.958Z,1020.78
2018-07-14T04:24:42.982Z,1020.79
2018-07-14T04:25:43.006Z,1020.79
2018-07-14T04:26:43.024Z,1020.79
2018-07-14T04:27:43.056Z,1020.78
2018-07-14T04:28:43.080Z,1020.76
2018-07-14T04:29:43.104Z,1020.79
2018-07-14T04:30:43.130Z,1020.77
2018-07-14T04:31:43.158Z,1020.77
2018-07-14T04:32:43.182Z,1020.81
2018-07-14T04:33:43.208Z,1020.79
2018-07-14T04:34:43.228Z,1020.81
2018-07-14T04:35:43.256Z,1020.78
2018-07-14T04:36:43.283Z,1020.77
2018-07-14T04:37:43.312Z,1020.79
2018-07-14T04:38:43.331Z,1020.82
2018-07-14T04:39:43.356Z,1020.81
2018-07-14T04:40:43.382Z,1020.77
2018-07-14T04:41:43.417Z,1020.80
2018-07-14T04:42:43.429Z,1020.80
2018-07-14T04:43:43.456Z,1020.79
2018-07-14T04:44:43.480Z,1020.79
2018-07-14T04:45:43.509Z,1020.79
2018-07-14T04:46:43.528Z,1020.83
2018-07-14T04:47:43.556Z,1020.84
2018-07-14T04:48:43.584Z,1020.83
2018-07-14T04:49:43.606Z,1020.88
2018-07-14T04:50:43.636Z,1020.86
2018-07-14T04:51:43.654Z,1020.87
2018-07-14T04:52:43.680Z,1020.88
2018-07-14T04:53:43.707Z,1020.87
2018-07-14T04:54:43.731Z,1020.88
2018-07-14T04:55:43.760Z,1020.84
2018-07-14T04:56:43.786Z,1020.83
2018-07-14T04:57:43.802Z,1020.78
2018-07-14T04:58:43.835Z,1020.80
2018-07-14T04:59:43.859Z,1020.83
2018-07-14T05:00:43.878Z,1020.86
2018-07-14T05:01:43.912Z,1020.82
2018-07-14T05:02:43.928Z,1020.87
2018-07-14T05:03:43.958Z,1020.85
2018-07-14T05:04:43.982Z,1020.85
2018-07-14T05:05:44.010Z,1020.87
2018-07-14T05:06:44.032Z,1020.88
2018-07-14T05:07:44.062Z,1020.86
2018-07-14T05:08:44.091Z,1020.89
2018-07-14T05:09:44.110Z,1020.93
2018-07-14T05:10:44.139Z,1020.89
2018-07-14T05:11:44.162Z,1020.90
2018-07-14T05:12:44.182Z,1020.88
2018-07-14T05:13:44.228Z,1020.89
2018-07-14T05:14:44.232Z,1020.86
2018-07-14T05:15:44.266Z,1020.88
2018-07-14T05:16:44.290Z,1020.87
2018-07-14T05:17:44.351Z,1020.92
2018-07-14T05:18:44.338Z,1020.90
2018-07-14T05:19:44.364Z,1020.94
2018-07-14T05:20:44.388Z,1020.94
2018-07-14T05:21:44.412Z,1020.92
2018-07-14T05:22:44.444Z,1020.96
2018-07-14T05:23:44.464Z,1020.93
2018-07-14T05:24:44.487Z,1020.94
2018-07-14T05:25:44.515Z,1020.94
2018-07-14T05:26:44.537Z,1020.93
2018-07-14T05:27:44.564Z,1020.94
2018-07-14T05:28:44.594Z,1020.94
2018-07-14T05:29:44.619Z,1020.95
2018-07-14T05:30:44.646Z,1020.96
2018-07-14T05:31:44.670Z,1021.03
2018-07-14T05:32:44.694Z,1021.02
2018-07-14T05:33:44.725Z,1021.03
2018-07-14T05:34:44.745Z,1021.00
2018-07-14T05:35:44.771Z,1021.01
2018-07-14T05:36:44.797Z,1021.02
2018-07-14T05:37:44.819Z,1021.06
2018-07-14T05:38:44.847Z,1021.08
2018-07-14T05:39:44.881Z,1021.06
2018-07-14T05:40:44.903Z,1021.08
2018-07-14T05:41:44.928Z,1021.06
2018-07-14T05:42:44.947Z,1021.11
2018-07-14T05:43:44.971Z,1021.10
2018-07-14T05:44:44.997Z,1021.09
2018-07-14T05:45:45.024Z,1021.04
2018-07-14T05:46:45.052Z,1021.05
2018-07-14T05:47:45.076Z,1021.04
2018-07-14T05:48:45.109Z,1021.07
2018-07-14T05:49:45.129Z,1021.06
2018-07-14T05:50:45.147Z,1021.13
2018-07-14T05:51:45.177Z,1021.12
2018-07-14T05:52:45.205Z,1021.11
2018-07-14T05:53:45.227Z,1021.12
2018-07-14T05:54:45.253Z,1021.15
2018-07-14T05:55:45.283Z,1021.12
2018-07-14T05:56:45.309Z,1021.17
2018-07-14T05:57:45.329Z,1021.18
2018-07-14T05:58:45.358Z,1021.19
2018-07-14T05:59:45.384Z,1021.21
2018-07-14T06:00:45.403Z,1021.21
2018-07-14T06:01:45.431Z,1021.23
2018-07-14T06:02:45.461Z,1021.22
2018-07-14T06:03:45.484Z,1021.24
2018-07-14T06:04:45.507Z,1021.20
2018-07-14T06:05:45.534Z,1021.23
2018-07-14T06:06:45.559Z,1021.25
2018-07-14T06:07:45.601Z,1021.29
2018-07-14T06:08:45.611Z,1021.26
2018-07-14T06:09:45.633Z,1021.24
2018-07-14T06:10:45.662Z,1021.26
2018-07-14T06:11:45.689Z,1021.25
2018-07-14T06:12:45.713Z,1021.25
2018-07-14T06:13:45.747Z,1021.24
2018-07-14T06:14:45.768Z,1021.26
2018-07-14T06:15:45.789Z,1021.24
2018-07-14T06:16:45.817Z,1021.25
2018-07-14T06:17:45.846Z,1021.28
2018-07-14T06:18:45.869Z,1021.27
2018-07-14T06:19:45.893Z,1021.30
2018-07-14T06:20:45.917Z,1021.30
2018-07-14T06:21:45.942Z,1021.33
2018-07-14T06:22:45.962Z,1021.36
2018-07-14T06:23:45.998Z,1021.30
2018-07-14T06:24:46.021Z,1021.31
2018-07-14T06:25:46.046Z,1021.35
2018-07-14T06:26:46.070Z,1021.35
2018-07-14T06:27:46.104Z,1021.36
2018-07-14T06:28:46.127Z,1021.37
2018-07-14T06:29:46.149Z,1021.32
2018-07-14T06:30:46.180Z,1021.37
2018-07-14T06:31:46.202Z,1021.39
2018-07-14T06:32:46.224Z,1021.38
2018-07-14T06:33:46.259Z,1021.44
2018-07-14T06:34:46.281Z,1021.42
2018-07-14T06:35:46.307Z,1021.45
2018-07-14T06:36:46.331Z,1021.49
2018-07-14T06:37:46.357Z,1021.51
2018-07-14T06:38:46.384Z,1021.45
2018-07-14T06:39:46.409Z,1021.46
2018-07-14T06:40:46.435Z,1021.44
2018-07-14T06:41:46.461Z,1021.42
2018-07-14T06:42:46.485Z,1021.44
2018-07-14T06:43:46.515Z,1021.46
2018-07-14T06:44:46.595Z,1021.48
2018-07-14T06:45:46.565Z,1021.45
2018-07-14T06:46:46.591Z,1021.43
2018-07-14T06:47:46.619Z,1021.44
2018-07-14T06:48:46.643Z,1021.42
2018-07-14T06:49:46.669Z,1021.39
2018-07-14T06:50:46.697Z,1021.39
2018-07-14T06:51:46.721Z,1021.41
2018-07-14T06:52:46.745Z,1021.43
2018-07-14T06:53:46.772Z,1021.44
2018-07-14T06:54:46.799Z,1021.46
2018-07-14T06:55:46.826Z,1021.48
2018-07-14T06:56:46.852Z,1021.49
2018-07-14T06:57:46.873Z,1021.47
2018-07-14T06:58:46.903Z,1021.50
2018-07-14T06:59:46.934Z,1021.48
2018-07-14T07:00:46.953Z,1021.50
2018-07-14T07:01:46.983Z,1021.52
2018-07-14T07:02:47.009Z,1021.52
2018-07-14T07:03:47.034Z,1021.49
2018-07-14T07:04:47.061Z,1021.50
2018-07-14T07:05:47.083Z,1021.56
2018-07-14T07:06:47.113Z,1021.45
2018-07-14T07:07:47.138Z,1021.49
2018-07-14T07:08:47.166Z,1021.53
2018-07-14T07:09:47.189Z,1021.54
2018-07-14T07:10:47.213Z,1021.55
2018-07-14T07:11:47.245Z,1021.55
2018-07-14T07:12:47.273Z,1021.50
2018-07-14T07:13:47.297Z,1021.54
2018-07-14T07:14:47.321Z,1021.55
2018-07-14T07:15:47.343Z,1021.54
2018-07-14T07:16:47.373Z,1021.56
2018-07-14T07:17:47.402Z,1021.61
2018-07-14T07:18:47.427Z,1021.59
2018-07-14T07:19:47.447Z,1021.62
2018-07-14T07:20:47.483Z,1021.66
2018-07-14T07:21:47.501Z,1021.67
2018-07-14T07:22:47.530Z,1021.71
2018-07-14T07:23:47.557Z,1021.69
2018-07-14T07:24:47.588Z,1021.66
2018-07-14T07:25:47.607Z,1021.65
2018-07-14T07:26:47.636Z,1021.75
2018-07-14T07:27:47.662Z,1021.76
2018-07-14T07:28:47.787Z,1021.76
2018-07-14T07:29:47.711Z,1021.70
2018-07-14T07:30:47.739Z,1021.73
2018-07-14T07:31:47.769Z,1021.72
2018-07-14T07:32:47.789Z,1021.73
2018-07-14T07:33:47.816Z,1021.78
2018-07-14T07:34:47.839Z,1021.77
2018-07-14T07:35:47.868Z,1021.78
2018-07-14T07:36:47.897Z,1021.75
2018-07-14T07:37:47.919Z,1021.78
2018-07-14T07:38:47.956Z,1021.80
2018-07-14T07:39:47.970Z,1021.81
2018-07-14T07:40:48.000Z,1021.81
2018-07-14T07:41:48.023Z,1021.76
2018-07-14T07:42:48.047Z,1021.78
2018-07-14T07:43:48.075Z,1021.81
2018-07-14T07:44:48.104Z,1021.83
2018-07-14T07:45:48.129Z,1021.87
2018-07-14T07:46:48.153Z,1021.86
2018-07-14T07:47:48.176Z,1021.88
2018-07-14T07:48:48.202Z,1021.89
2018-07-14T07:49:48.230Z,1021.93
2018-07-14T07:50:48.259Z,1021.86
2018-07-14T07:51:48.288Z,1021.86
2018-07-14T07:52:48.320Z,1021.85
2018-07-14T07:53:48.334Z,1021.87
2018-07-14T07:54:48.357Z,1021.85
2018-07-14T07:55:48.389Z,1021.93
2018-07-14T07:56:48.420Z,1021.87
2018-07-14T07:57:48.439Z,1021.86
2018-07-14T07:58:48.468Z,1021.90
2018-07-14T07:59:48.487Z,1021.88
2018-07-14T08:00:48.514Z,1021.92
2018-07-14T08:01:48.543Z,1021.89
2018-07-14T08:02:48.568Z,1021.92
2018-07-14T08:03:48.596Z,1021.89
2018-07-14T08:04:48.622Z,1021.94
2018-07-14T08:05:48.648Z,1021.90
2018-07-14T08:06:48.674Z,1021.87
2018-07-14T08:07:48.698Z,1021.94
2018-07-14T08:08:48.730Z,1021.96
2018-07-14T08:09:48.750Z,1021.98
2018-07-14T08:10:48.776Z,1021.98
2018-07-14T08:11:48.805Z,1021.95
2018-07-14T08:12:48.831Z,1021.97
2018-07-14T08:13:48.858Z,1021.96
2018-07-14T08:14:48.882Z,1021.93
2018-07-14T08:15:48.919Z,1021.94
2018-07-14T08:16:48.934Z,1021.95
2018-07-14T08:17:48.961Z,1021.99
2018-07-14T08:18:48.985Z,1022.00
2018-07-14T08:19:49.017Z,1021.97
2018-07-14T08:20:49.049Z,1021.96
2018-07-14T08:21:49.070Z,1021.95
2018-07-14T08:22:49.148Z,1021.92
2018-07-14T08:23:49.119Z,1022.00
2018-07-14T08:24:49.144Z,1021.97
2018-07-14T08:25:49.173Z,1021.94
2018-07-14T08:26:49.199Z,1021.98
2018-07-14T08:27:49.225Z,1022.02
2018-07-14T08:28:49.252Z,1022.00
2018-07-14T08:29:49.282Z,1021.99
2018-07-14T08:30:49.307Z,1021.96
2018-07-14T08:31:49.332Z,1021.98
2018-07-14T08:32:49.355Z,1021.95
2018-07-14T08:33:49.388Z,1021.98
2018-07-14T08:34:49.411Z,1022.01
2018-07-14T08:35:49.435Z,1022.02
2018-07-14T08:36:49.466Z,1022.05
2018-07-14T08:37:49.486Z,1022.05
2018-07-14T08:38:49.558Z,1022.06
2018-07-14T08:39:49.544Z,1022.10
2018-07-14T08:40:49.568Z,1022.06
2018-07-14T08:41:49.644Z,1022.07
2018-07-14T08:42:49.617Z,1022.06
2018-07-14T08:43:49.722Z,1022.03
2018-07-14T08:44:49.675Z,1022.05
2018-07-14T08:45:49.696Z,1022.08
2018-07-14T08:46:49.727Z,1022.07
2018-07-14T08:47:49.756Z,1022.08
2018-07-14T08:48:49.782Z,1022.14
2018-07-14T08:49:49.808Z,1022.14
2018-07-14T08:50:49.833Z,1022.08
2018-07-14T08:51:49.856Z,1022.13
2018-07-14T08:52:49.887Z,1022.14
2018-07-14T08:53:49.922Z,1022.15
2018-07-14T08:54:49.938Z,1022.11
2018-07-14T08:55:49.965Z,1022.10
2018-07-14T08:56:49.994Z,1022.12
2018-07-14T08:57:50.017Z,1022.15
2018-07-14T08:58:50.052Z,1022.19
2018-07-14T08:59:50.071Z,1022.21
2018-07-14T09:00:50.101Z,1022.22
2018-07-14T09:01:50.126Z,1022.25
2018-07-14T09:02:50.150Z,1022.23
2018-07-14T09:03:50.178Z,1022.22
2018-07-14T09:04:50.220Z,1022.20
2018-07-14T09:05:50.236Z,1022.25
2018-07-14T09:06:50.262Z,1022.24
2018-07-14T09:07:50.284Z,1022.23
2018-07-14T09:08:50.314Z,1022.25
2018-07-14T09:09:50.352Z,1022.24
2018-07-14T09:10:50.369Z,1022.21
2018-07-14T09:11:50.399Z,1022.25
2018-07-14T09:12:50.426Z,1022.21
2018-07-14T09:13:50.449Z,1022.19
2018-07-14T09:14:50.479Z,1022.19
2018-07-14T09:15:50.505Z,1022.25
2018-07-14T09:16:50.533Z,1022.17
2018-07-14T09:17:50.565Z,1022.10
2018-07-14T09:18:50.590Z,1022.12
2018-07-14T09:19:50.617Z,1022.19
2018-07-14T09:20:50.646Z,1022.15
2018-07-14T09:21:50.674Z,1022.17
2018-07-14T09:22:50.705Z,1022.20
2018-07-14T09:23:50.727Z,1022.22
2018-07-14T09:24:50.754Z,1022.24
2018-07-14T09:25:50.784Z,1022.28
2018-07-14T09:26:50.813Z,1022.22
2018-07-14T09:27:50.845Z,1022.26
2018-07-14T09:28:50.869Z,1022.26
2018-07-14T09:29:50.890Z,1022.26
2018-07-14T09:30:50.925Z,1022.20
2018-07-14T09:31:50.951Z,1022.18
2018-07-14T09:32:50.974Z,1022.17
2018-07-14T09:33:51.007Z,1022.10
2018-07-14T09:34:51.037Z,1022.00
2018-07-14T09:35:54.062Z,1022.04
2018-07-14T09:36:51.089Z,1022.00
2018-07-14T09:37:51.130Z,1022.04
2018-07-14T09:38:51.139Z,1022.05
2018-07-14T09:39:51.174Z,1022.09
2018-07-14T09:40:51.193Z,1022.10
2018-07-14T09:41:51.223Z,1022.02
2018-07-14T09:42:51.256Z,1021.95
2018-07-14T09:43:51.282Z,1021.95
2018-07-14T09:44:51.308Z,1021.95
2018-07-14T09:45:51.341Z,1021.88
2018-07-14T09:46:51.365Z,1021.88
2018-07-14T09:47:51.476Z,1021.87
2018-07-14T09:48:51.416Z,1021.89
2018-07-14T09:49:51.446Z,1021.94
2018-07-14T09:50:51.473Z,1022.07
2018-07-14T09:51:51.501Z,1022.08
2018-07-14T09:52:51.528Z,1022.11
2018-07-14T09:53:51.556Z,1022.17
2018-07-14T09:54:51.580Z,1022.11
2018-07-14T09:55:51.608Z,1022.09
2018-07-14T09:56:51.643Z,1022.09
2018-07-14T09:57:51.660Z,1022.14
2018-07-14T09:58:51.694Z,1022.10
2018-07-14T09:59:51.724Z,1021.99
2018-07-14T10:00:51.754Z,1021.93
2018-07-14T10:01:51.774Z,1021.87
2018-07-14T10:02:51.799Z,1021.81
2018-07-14T10:03:51.831Z,1021.81
2018-07-14T10:04:51.860Z,1021.85
2018-07-14T10:05:51.890Z,1021.91
2018-07-14T10:06:51.913Z,1021.99
2018-07-14T10:07:51.942Z,1022.04
2018-07-14T10:08:51.966Z,1022.09
2018-07-14T10:09:52.001Z,1022.05
2018-07-14T10:10:52.024Z,1022.08
2018-07-14T10:11:52.054Z,1022.12
2018-07-14T10:12:52.092Z,1022.06
2018-07-14T10:13:52.111Z,1022.01
2018-07-14T10:14:52.186Z,1021.96
2018-07-14T10:15:52.173Z,1021.94
2018-07-14T10:16:52.194Z,1021.88
2018-07-14T10:17:52.218Z,1021.89
2018-07-14T10:18:52.242Z,1021.84
2018-07-14T10:19:52.277Z,1021.78
2018-07-14T10:20:52.302Z,1021.86
2018-07-14T10:21:52.326Z,1021.89
2018-07-14T10:22:52.350Z,1021.88
2018-07-14T10:23:52.382Z,1021.87
2018-07-14T10:24:52.407Z,1021.85
2018-07-14T10:25:52.627Z,1021.91
2018-07-14T10:26:52.466Z,1021.93
2018-07-14T10:27:52.492Z,1021.91
2018-07-14T10:28:52.565Z,1021.97
2018-07-14T10:29:52.543Z,1021.94
2018-07-14T10:30:52.574Z,1021.97
2018-07-14T10:31:52.596Z,1022.00
2018-07-14T10:32:52.628Z,1022.04
2018-07-14T10:33:52.665Z,1022.04
2018-07-14T10:34:52.682Z,1022.04
2018-07-14T10:35:52.714Z,1022.01
2018-07-14T10:36:52.738Z,1021.99
2018-07-14T10:37:52.762Z,1021.97
2018-07-14T10:38:52.860Z,1021.96
2018-07-14T10:39:52.816Z,1021.95
2018-07-14T10:40:52.854Z,1021.88
2018-07-14T10:41:52.872Z,1021.90
2018-07-14T10:42:52.902Z,1021.91
2018-07-14T10:43:52.926Z,1021.89
2018-07-14T10:44:52.955Z,1021.89
2018-07-14T10:45:52.994Z,1021.89
2018-07-14T10:46:53.058Z,1021.84
2018-07-14T10:47:53.038Z,1021.84
2018-07-14T10:48:53.065Z,1021.86
2018-07-14T10:49:53.096Z,1021.85
2018-07-14T10:50:53.122Z,1021.83
2018-07-14T10:51:53.150Z,1021.84
2018-07-14T10:52:53.174Z,1021.82
2018-07-14T10:53:53.212Z,1021.81
2018-07-14T10:54:53.224Z,1021.78
2018-07-14T10:55:53.250Z,1021.82
2018-07-14T10:56:53.283Z,1021.78
2018-07-14T10:57:53.303Z,1021.81
2018-07-14T10:58:53.328Z,1021.78
2018-07-14T10:59:53.369Z,1021.84
2018-07-14T11:00:53.386Z,1021.82
2018-07-14T11:01:53.424Z,1021.87
2018-07-14T11:02:53.444Z,1021.93
2018-07-14T11:03:53.473Z,1021.95
2018-07-14T11:04:53.499Z,1021.91
2018-07-14T11:05:53.528Z,1021.98
2018-07-14T11:06:53.548Z,1021.90
2018-07-14T11:07:53.596Z,1021.91
2018-07-14T11:08:54.819Z,1021.91
2018-07-14T11:09:53.627Z,1021.91
2018-07-14T11:10:53.660Z,1021.86
2018-07-14T11:11:53.685Z,1021.84
2018-07-14T11:12:53.710Z,1021.83
2018-07-14T11:13:53.740Z,1021.85
2018-07-14T11:14:53.769Z,1021.82
2018-07-14T11:15:53.788Z,1021.79
2018-07-14T11:16:53.824Z,1021.80
2018-07-14T11:17:53.889Z,1021.76
2018-07-14T11:18:53.872Z,1021.71
2018-07-14T11:19:53.902Z,1021.75
2018-07-14T11:20:53.931Z,1021.71
2018-07-14T11:21:53.958Z,1021.72
2018-07-14T11:22:53.983Z,1021.74
2018-07-14T11:23:54.010Z,1021.74
2018-07-14T11:24:54.043Z,1021.71
2018-07-14T11:25:54.066Z,1021.68
2018-07-14T11:26:54.089Z,1021.74
2018-07-14T11:27:54.121Z,1021.72
2018-07-14T11:28:54.148Z,1021.75
2018-07-14T11:29:54.169Z,1021.73
2018-07-14T11:30:54.200Z,1021.77
2018-07-14T11:31:54.232Z,1021.80
2018-07-14T11:32:54.250Z,1021.77
2018-07-14T11:33:54.280Z,1021.75
2018-07-14T11:34:54.304Z,1021.77
2018-07-14T11:35:54.330Z,1021.77
2018-07-14T11:36:54.358Z,1021.79
2018-07-14T11:37:54.390Z,1021.85
2018-07-14T11:38:54.414Z,1021.95
2018-07-14T11:39:54.437Z,1021.97
2018-07-14T11:40:54.471Z,1022.02
2018-07-14T11:41:54.490Z,1021.98
2018-07-14T11:42:54.521Z,1022.02
2018-07-14T11:43:54.550Z,1022.05
2018-07-14T11:44:54.580Z,1022.11
2018-07-14T11:45:54.604Z,1022.09
2018-07-14T11:46:54.632Z,1022.05
2018-07-14T11:47:54.735Z,1022.03
2018-07-14T11:48:54.682Z,1022.04
2018-07-14T11:49:54.718Z,1022.03
2018-07-14T11:50:54.732Z,1022.09
2018-07-14T11:51:54.774Z,1022.08
2018-07-14T11:52:54.801Z,1022.09
2018-07-14T11:53:54.822Z,1022.10
2018-07-14T11:54:54.849Z,1022.08
2018-07-14T11:55:54.880Z,1022.16
2018-07-14T11:56:54.909Z,1022.14
2018-07-14T11:57:54.938Z,1022.18
2018-07-14T11:58:54.961Z,1022.15
2018-07-14T11:59:54.990Z,1022.16
2018-07-14T12:00:55.016Z,1022.16
2018-07-14T12:01:55.101Z,1022.13
2018-07-14T12:02:55.075Z,1022.14
2018-07-14T12:03:55.103Z,1022.14
2018-07-14T12:04:55.128Z,1022.15
2018-07-14T12:05:55.160Z,1022.16